createdAt,value
2023-04-18T00:01:55.280Z,13.70
2023-04-18T00:04:22.210Z,13.88
2023-04-18T00:06:50.072Z,12.70
2023-04-18T00:09:17.012Z,13.73
2023-04-18T00:11:43.897Z,13.00
2023-04-18T00:14:10.847Z,13.60
2023-04-18T00:16:38.931Z,14.10
2023-04-18T00:19:06.290Z,13.73
2023-04-18T00:21:33.260Z,13.10
2023-04-18T00:24:00.081Z,14.15
2023-04-18T00:26:27.793Z,13.82
2023-04-18T00:28:54.610Z,13.18
2023-04-18T00:31:21.526Z,13.75
2023-04-18T00:33:48.406Z,12.50
2023-04-18T00:36:15.696Z,13.70
2023-04-18T00:38:42.495Z,12.73
2023-04-18T00:41:09.358Z,14.20
2023-04-18T00:43:37.378Z,13.75
2023-04-18T00:46:04.276Z,13.98
2023-04-18T00:48:31.075Z,12.93
2023-04-18T00:50:58.247Z,13.27
2023-04-18T00:53:25.247Z,13.50
2023-04-18T00:55:53.182Z,13.40
2023-04-18T00:58:20.391Z,13.18
2023-04-18T01:00:47.636Z,12.18
2023-04-18T01:03:14.871Z,13.52
2023-04-18T01:05:41.822Z,13.93
2023-04-18T01:08:08.704Z,14.45
2023-04-18T01:10:36.477Z,13.70
2023-04-18T01:13:19.599Z,13.65
2023-04-18T01:15:48.592Z,13.07
2023-04-18T01:18:19.380Z,13.20
2023-04-18T01:20:48.679Z,12.15
2023-04-18T01:23:17.140Z,13.10
2023-04-18T01:25:45.119Z,12.98
2023-04-18T01:28:14.410Z,13.02
2023-04-18T01:30:41.440Z,13.35
2023-04-18T01:33:08.330Z,13.20
2023-04-18T01:35:35.214Z,13.60
2023-04-18T01:38:02.125Z,13.68
2023-04-18T01:40:30.274Z,13.80
2023-04-18T01:42:57.260Z,12.82
2023-04-18T01:45:24.223Z,12.50
2023-04-18T01:47:51.121Z,12.10
2023-04-18T01:50:18.012Z,13.05
2023-04-18T01:52:44.842Z,12.57
2023-04-18T01:55:11.788Z,12.98
2023-04-18T01:57:38.601Z,12.45
2023-04-18T02:00:06.553Z,13.43
2023-04-18T02:02:42.126Z,12.65
2023-04-18T02:05:09.608Z,12.05
2023-04-18T02:07:40.144Z,12.60
2023-04-18T02:10:08.077Z,13.82
2023-04-18T02:12:34.843Z,12.05
2023-04-18T02:15:01.661Z,12.57
2023-04-18T02:17:29.010Z,12.32
2023-04-18T02:19:56.064Z,12.15
2023-04-18T02:22:22.846Z,12.93
2023-04-18T02:24:49.680Z,13.25
2023-04-18T02:27:16.508Z,13.70
2023-04-18T02:29:43.291Z,12.90
2023-04-18T02:32:10.093Z,12.60
2023-04-18T02:34:37.265Z,13.15
2023-04-18T02:37:04.810Z,13.38
2023-04-18T02:39:32.588Z,12.10
2023-04-18T02:41:59.492Z,12.43
2023-04-18T02:44:26.359Z,11.70
2023-04-18T02:46:53.173Z,12.40
2023-04-18T02:49:20.255Z,13.43
2023-04-18T02:51:47.408Z,12.70
2023-04-18T02:54:15.429Z,12.27
2023-04-18T02:56:54.472Z,12.70
2023-04-18T02:59:44.467Z,12.07
2023-04-18T03:02:30.506Z,12.80
2023-04-18T03:05:03.459Z,12.88
2023-04-18T03:07:31.165Z,13.35
2023-04-18T03:10:00.157Z,12.45
2023-04-18T03:12:31.590Z,12.23
2023-04-18T03:14:58.473Z,13.13
2023-04-18T03:17:25.481Z,12.32
2023-04-18T03:19:53.009Z,11.63
2023-04-18T03:22:20.605Z,11.77
2023-04-18T03:24:53.751Z,11.73
2023-04-18T03:27:22.674Z,12.90
2023-04-18T03:29:49.467Z,12.55
2023-04-18T03:32:17.527Z,12.00
2023-04-18T03:34:44.517Z,12.32
2023-04-18T03:37:11.849Z,11.82
2023-04-18T03:39:44.368Z,12.25
2023-04-18T03:42:11.292Z,12.52
2023-04-18T03:44:39.197Z,12.70
2023-04-18T03:47:06.597Z,12.05
2023-04-18T03:49:35.765Z,12.65
2023-04-18T03:52:03.665Z,11.93
2023-04-18T03:54:30.459Z,12.02
2023-04-18T03:56:59.536Z,12.00
2023-04-18T03:59:27.878Z,12.68
2023-04-18T04:01:56.170Z,12.30
2023-04-18T04:04:26.483Z,14.13
2023-04-18T04:06:53.420Z,15.73
2023-04-18T04:09:20.297Z,15.95
2023-04-18T04:11:47.199Z,13.60
2023-04-18T04:14:16.274Z,14.68
2023-04-18T04:16:46.126Z,14.00
2023-04-18T04:19:15.903Z,13.67
2023-04-18T04:22:05.527Z,13.57
2023-04-18T04:24:33.889Z,13.68
2023-04-18T04:27:01.532Z,13.73
2023-04-18T04:29:29.330Z,14.98
2023-04-18T04:31:59.482Z,14.18
2023-04-18T04:34:36.891Z,14.30
2023-04-18T04:37:05.965Z,14.52
2023-04-18T04:39:39.139Z,13.90
2023-04-18T04:44:55.172Z,14.38
2023-04-18T04:47:22.566Z,15.23
2023-04-18T04:49:49.437Z,14.68
2023-04-18T04:52:16.282Z,13.77
2023-04-18T04:54:45.154Z,13.25
2023-04-18T04:57:14.171Z,13.52
2023-04-18T04:59:41.252Z,13.50
2023-04-18T05:02:08.155Z,13.85
2023-04-18T05:04:36.372Z,14.20
2023-04-18T05:07:03.789Z,13.13
2023-04-18T05:09:30.616Z,13.98
2023-04-18T05:11:57.411Z,13.98
2023-04-18T05:14:27.902Z,14.05
2023-04-18T05:16:55.863Z,14.82
2023-04-18T05:19:23.184Z,13.95
2023-04-18T05:21:49.948Z,14.30
2023-04-18T05:24:16.950Z,19.08
2023-04-18T05:26:43.971Z,27.45
2023-04-18T05:29:10.819Z,14.25
2023-04-18T05:31:37.591Z,14.77
2023-04-18T05:34:04.413Z,14.45
2023-04-18T05:36:32.005Z,15.07
2023-04-18T05:38:58.822Z,12.73
2023-04-18T05:41:25.715Z,14.95
2023-04-18T05:44:04.297Z,14.23
2023-04-18T05:46:32.976Z,13.45
2023-04-18T05:48:59.862Z,14.98
2023-04-18T05:51:28.757Z,13.90
2023-04-18T05:53:55.668Z,13.55
2023-04-18T05:56:22.497Z,13.75
2023-04-18T05:58:51.495Z,14.55
2023-04-18T06:01:21.654Z,12.35
2023-04-18T06:03:48.694Z,22.70
2023-04-18T06:06:16.067Z,13.80
2023-04-18T06:08:42.889Z,13.50
2023-04-18T06:11:09.719Z,12.55
2023-04-18T06:13:37.520Z,13.18
2023-04-18T06:16:04.504Z,13.00
2023-04-18T06:18:31.793Z,13.93
2023-04-18T06:20:58.738Z,12.95
2023-04-18T06:23:25.544Z,13.10
2023-04-18T06:25:52.375Z,12.65
2023-04-18T06:28:19.230Z,13.05
2023-04-18T06:30:46.053Z,12.80
2023-04-18T06:33:12.829Z,12.68
2023-04-18T06:35:39.734Z,12.52
2023-04-18T06:38:06.559Z,27.33
2023-04-18T06:40:33.358Z,13.15
2023-04-18T06:43:00.140Z,13.02
2023-04-18T06:45:28.267Z,12.40
2023-04-18T06:47:55.138Z,12.45
2023-04-18T06:50:21.994Z,11.52
2023-04-18T06:52:48.763Z,11.10
2023-04-18T06:55:16.959Z,11.93
2023-04-18T06:57:46.389Z,11.35
2023-04-18T07:00:13.732Z,10.93
2023-04-18T07:02:41.330Z,11.85
2023-04-18T07:05:08.637Z,11.27
2023-04-18T07:07:35.564Z,10.85
2023-04-18T07:10:02.490Z,10.13
2023-04-18T07:12:29.303Z,11.30
2023-04-18T07:14:56.056Z,10.57
2023-04-18T07:17:22.938Z,10.68
2023-04-18T07:19:49.813Z,18.77
2023-04-18T07:22:16.617Z,15.48
2023-04-18T07:24:44.285Z,37.75
2023-04-18T07:27:11.040Z,11.05
2023-04-18T07:29:37.816Z,11.32
2023-04-18T07:32:06.187Z,12.13
2023-04-18T07:34:36.354Z,10.38
2023-04-18T07:37:03.585Z,10.13
2023-04-18T07:39:32.072Z,18.73
2023-04-18T07:41:59.105Z,51.97
2023-04-18T07:44:26.038Z,11.43
2023-04-18T07:46:53.654Z,10.82
2023-04-18T07:49:20.452Z,10.43
2023-04-18T07:51:47.301Z,10.55
2023-04-18T07:54:14.060Z,10.38
2023-04-18T07:56:41.257Z,10.73
2023-04-18T07:59:08.229Z,10.68
2023-04-18T08:01:35.091Z,10.57
2023-04-18T08:04:02.330Z,11.65
2023-04-18T08:06:29.459Z,10.75
2023-04-18T08:08:56.572Z,11.02
2023-04-18T08:11:23.418Z,10.65
2023-04-18T08:13:50.467Z,11.38
2023-04-18T08:16:17.583Z,10.70
2023-04-18T08:18:44.566Z,10.52
2023-04-18T08:21:11.496Z,9.82
2023-04-18T08:23:38.498Z,10.75
2023-04-18T08:26:05.537Z,11.55
2023-04-18T08:28:32.571Z,11.48
2023-04-18T08:30:59.364Z,10.50
2023-04-18T08:33:26.660Z,11.00
2023-04-18T08:35:53.464Z,11.30
2023-04-18T08:38:20.359Z,10.63
2023-04-18T08:40:47.488Z,11.75
2023-04-18T08:43:15.424Z,10.02
2023-04-18T08:45:43.335Z,10.82
2023-04-18T08:48:14.483Z,9.88
2023-04-18T08:50:42.115Z,10.27
2023-04-18T08:53:09.672Z,10.05
2023-04-18T08:55:37.323Z,11.07
2023-04-18T08:58:07.225Z,10.73
2023-04-18T09:00:34.330Z,10.43
2023-04-18T09:03:03.138Z,10.85
2023-04-18T09:05:30.189Z,10.55
2023-04-18T09:07:57.077Z,9.98
2023-04-18T09:10:33.177Z,10.57
2023-04-18T09:13:03.564Z,10.73
2023-04-18T09:15:31.054Z,11.15
2023-04-18T09:18:00.451Z,11.18
2023-04-18T09:20:30.964Z,14.10
2023-04-18T09:23:00.932Z,10.35
2023-04-18T09:25:29.573Z,9.93
2023-04-18T09:28:01.256Z,9.85
2023-04-18T09:30:39.607Z,9.20
2023-04-18T09:33:10.242Z,9.88
2023-04-18T09:35:38.234Z,10.23
2023-04-18T09:38:06.116Z,9.10
2023-04-18T09:40:33.482Z,10.30
2023-04-18T09:43:00.766Z,9.98
2023-04-18T09:45:27.636Z,10.13
2023-04-18T09:47:55.947Z,10.75
2023-04-18T09:50:22.773Z,9.85
2023-04-18T09:52:49.602Z,10.02
2023-04-18T09:55:19.762Z,10.65
2023-04-18T09:57:48.537Z,11.23
2023-04-18T10:00:21.768Z,10.40
2023-04-18T10:02:58.828Z,10.35
2023-04-18T10:05:28.237Z,12.00
2023-04-18T10:07:55.434Z,11.02
2023-04-18T10:10:22.659Z,10.40
2023-04-18T10:12:51.056Z,9.98
2023-04-18T10:15:18.433Z,9.98
2023-04-18T10:18:03.656Z,12.63
2023-04-18T10:20:33.347Z,10.60
2023-04-18T10:23:00.254Z,10.88
2023-04-18T10:25:39.298Z,10.07
2023-04-18T10:28:09.655Z,9.40
2023-04-18T10:30:42.666Z,10.25
2023-04-18T10:36:01.287Z,10.05
2023-04-18T10:38:28.182Z,9.55
2023-04-18T10:41:14.085Z,9.70
2023-04-18T10:44:12.264Z,10.02
2023-04-18T10:46:48.512Z,9.48
2023-04-18T10:49:34.736Z,9.63
2023-04-18T10:52:03.062Z,10.20
2023-04-18T10:54:36.029Z,10.20
2023-04-18T10:57:04.351Z,8.98
2023-04-18T10:59:32.987Z,9.77
2023-04-18T11:02:05.367Z,9.57
2023-04-18T11:04:32.277Z,9.35
2023-04-18T11:06:59.207Z,10.75
2023-04-18T11:09:26.148Z,10.75
2023-04-18T11:12:06.700Z,11.52
2023-04-18T11:14:41.461Z,11.27
2023-04-18T11:17:22.469Z,11.10
2023-04-18T11:19:50.140Z,11.43
2023-04-18T11:22:17.804Z,11.30
2023-04-18T11:24:45.244Z,10.98
2023-04-18T11:27:12.898Z,12.05
2023-04-18T11:29:39.775Z,11.77
2023-04-18T11:32:08.081Z,11.18
2023-04-18T11:34:36.060Z,11.90
2023-04-18T11:37:07.038Z,11.43
2023-04-18T11:39:35.745Z,11.63
2023-04-18T11:42:02.509Z,11.70
2023-04-18T11:44:29.253Z,11.50
2023-04-18T11:46:56.074Z,11.90
2023-04-18T11:49:26.305Z,12.27
2023-04-18T11:51:53.825Z,12.02
2023-04-18T11:54:45.751Z,12.35
2023-04-18T11:57:23.243Z,12.32
2023-04-18T11:59:50.908Z,10.95
2023-04-18T12:02:17.992Z,12.05
2023-04-18T12:04:56.783Z,12.23
2023-04-18T12:07:48.332Z,12.32
2023-04-18T12:10:21.124Z,11.43
2023-04-18T12:12:51.772Z,12.27
2023-04-18T12:15:19.541Z,12.70
2023-04-18T12:17:48.728Z,12.27
2023-04-18T12:20:16.314Z,12.60
2023-04-18T12:22:46.392Z,10.90
2023-04-18T12:25:27.141Z,11.70
2023-04-18T12:27:58.257Z,12.35
2023-04-18T12:30:44.232Z,13.05
2023-04-18T12:33:11.317Z,11.75
2023-04-18T12:35:38.118Z,12.18
2023-04-18T12:38:05.144Z,12.43
2023-04-18T12:40:32.011Z,12.15
2023-04-18T12:42:59.282Z,12.75
2023-04-18T12:45:26.884Z,12.45
2023-04-18T12:47:53.959Z,12.77
2023-04-18T12:50:22.881Z,12.10
2023-04-18T12:52:52.251Z,11.55
2023-04-18T12:55:19.425Z,11.52
2023-04-18T12:57:46.490Z,10.60
2023-04-18T13:00:14.284Z,10.05
2023-04-18T13:02:43.871Z,9.73
2023-04-18T13:05:12.799Z,10.03
2023-04-18T13:07:40.923Z,9.98
2023-04-18T13:10:09.458Z,10.07
2023-04-18T13:12:36.733Z,10.55
2023-04-18T13:15:04.539Z,9.98
2023-04-18T13:17:31.550Z,9.73
2023-04-18T13:19:58.478Z,10.02
2023-04-18T13:22:25.736Z,10.68
2023-04-18T13:24:53.750Z,9.63
2023-04-18T13:27:20.582Z,9.82
2023-04-18T13:29:47.475Z,8.88
2023-04-18T13:32:14.334Z,9.50
2023-04-18T13:34:45.992Z,8.35
2023-04-18T13:37:13.723Z,9.38
2023-04-18T13:39:40.728Z,9.52
2023-04-18T13:42:08.009Z,9.10
2023-04-18T13:44:36.207Z,8.98
2023-04-18T13:47:05.719Z,8.48
2023-04-18T13:49:33.946Z,8.65
2023-04-18T13:52:01.141Z,8.23
2023-04-18T13:54:29.110Z,8.90
2023-04-18T13:56:57.882Z,9.95
2023-04-18T13:59:28.393Z,9.18
2023-04-18T14:01:55.757Z,9.27
2023-04-18T14:04:23.399Z,10.20
2023-04-18T14:06:50.879Z,8.93
2023-04-18T14:09:18.153Z,8.13
2023-04-18T14:11:45.454Z,8.75
2023-04-18T14:14:12.236Z,8.30
2023-04-18T14:16:39.041Z,8.05
2023-04-18T14:19:05.859Z,9.38
2023-04-18T14:21:32.643Z,8.25
2023-04-18T14:23:59.432Z,7.70
2023-04-18T14:26:26.208Z,7.43
2023-04-18T14:28:53.103Z,8.52
2023-04-18T14:31:20.187Z,8.05
2023-04-18T14:33:47.007Z,8.32
2023-04-18T14:36:17.077Z,7.97
2023-04-18T14:38:47.926Z,7.57
2023-04-18T14:41:14.928Z,7.90
2023-04-18T14:43:41.740Z,6.57
2023-04-18T14:46:16.838Z,5.60
2023-04-18T14:48:47.481Z,8.25
2023-04-18T14:51:17.682Z,8.10
2023-04-18T14:53:44.973Z,5.72
2023-04-18T14:56:12.000Z,5.32
2023-04-18T14:58:38.759Z,5.63
2023-04-18T15:01:05.636Z,5.53
2023-04-18T15:03:32.673Z,5.60
2023-04-18T15:05:59.763Z,4.50
2023-04-18T15:08:26.571Z,5.28
2023-04-18T15:10:54.272Z,5.70
2023-04-18T15:13:21.209Z,4.82
2023-04-18T15:15:55.350Z,5.20
2023-04-18T15:18:22.417Z,5.40
2023-04-18T15:20:49.297Z,4.75
2023-04-18T15:23:16.540Z,5.22
2023-04-18T15:25:44.629Z,4.90
2023-04-18T15:28:13.321Z,10.18
2023-04-18T15:30:40.290Z,5.05
2023-04-18T15:33:08.230Z,5.53
2023-04-18T15:35:36.146Z,3.75
2023-04-18T15:38:03.044Z,4.80
2023-04-18T15:40:30.149Z,3.90
2023-04-18T15:42:57.955Z,3.75
2023-04-18T15:45:24.843Z,3.80
2023-04-18T15:47:51.825Z,3.55
2023-04-18T15:50:18.717Z,8.50
2023-04-18T15:52:45.548Z,3.42
2023-04-18T15:55:13.544Z,3.03
2023-04-18T15:57:41.794Z,4.40
2023-04-18T16:00:16.384Z,2.70
2023-04-18T16:02:47.132Z,3.22
2023-04-18T16:07:42.437Z,3.17
2023-04-18T16:10:12.977Z,2.90
2023-04-18T16:12:39.992Z,3.30
2023-04-18T16:15:08.818Z,3.33
2023-04-18T16:17:36.713Z,3.08
2023-04-18T16:20:08.589Z,3.30
2023-04-18T16:22:36.351Z,3.22
2023-04-18T16:25:04.242Z,3.05
2023-04-18T16:27:31.026Z,2.92
2023-04-18T16:29:57.949Z,3.92
2023-04-18T16:32:25.251Z,6.03
2023-04-18T16:34:52.194Z,2.90
2023-04-18T16:37:19.098Z,2.97
2023-04-18T16:39:46.282Z,3.50
2023-04-18T16:42:15.865Z,3.47
2023-04-18T16:44:42.892Z,3.67
2023-04-18T16:47:09.843Z,3.67
2023-04-18T16:49:37.663Z,3.13
2023-04-18T16:52:04.618Z,3.97
2023-04-18T16:54:31.584Z,3.95
2023-04-18T16:56:58.516Z,3.65
2023-04-18T16:59:25.369Z,4.03
2023-04-18T17:01:52.491Z,3.55
2023-04-18T17:04:19.334Z,4.07
2023-04-18T17:06:46.811Z,4.25
2023-04-18T17:09:14.948Z,4.10
2023-04-18T17:11:41.958Z,4.97
2023-04-18T17:14:09.081Z,4.65
2023-04-18T17:16:38.749Z,4.03
2023-04-18T17:19:05.782Z,4.13
2023-04-18T17:21:33.963Z,4.10
2023-04-18T17:24:03.876Z,4.20
2023-04-18T17:26:31.159Z,4.17
2023-04-18T17:28:58.066Z,4.35
2023-04-18T17:31:24.929Z,4.35
2023-04-18T17:33:51.797Z,3.92
2023-04-18T17:36:18.654Z,4.07
2023-04-18T17:38:49.049Z,4.03
2023-04-18T17:41:20.328Z,4.05
2023-04-18T17:43:48.206Z,6.38
2023-04-18T17:46:15.101Z,4.50
2023-04-18T17:48:42.018Z,4.35
2023-04-18T17:51:08.815Z,3.42
2023-04-18T17:53:35.641Z,3.95
2023-04-18T17:56:03.901Z,4.22
2023-04-18T17:58:30.817Z,3.92
2023-04-18T18:00:57.729Z,3.70
2023-04-18T18:03:24.761Z,3.92
2023-04-18T18:05:52.037Z,3.67
2023-04-18T18:08:19.308Z,3.60
2023-04-18T18:10:47.338Z,4.13
2023-04-18T18:13:14.117Z,4.00
2023-04-18T18:15:40.918Z,3.80
2023-04-18T18:18:07.842Z,3.95
2023-04-18T18:20:34.779Z,7.22
2023-04-18T18:23:02.067Z,4.30
2023-04-18T18:25:29.318Z,4.10
2023-04-18T18:27:56.171Z,3.85
2023-04-18T18:30:23.001Z,3.63
2023-04-18T18:32:49.840Z,4.60
2023-04-18T18:35:16.831Z,4.32
2023-04-18T18:37:43.662Z,4.13
2023-04-18T18:40:11.015Z,3.30
2023-04-18T18:42:37.880Z,4.03
2023-04-18T18:45:05.393Z,3.65
2023-04-18T18:47:32.375Z,4.18
2023-04-18T18:49:59.160Z,4.30
2023-04-18T18:52:28.260Z,4.50
2023-04-18T18:54:55.510Z,4.90
2023-04-18T18:57:22.667Z,37.53
2023-04-18T18:59:53.836Z,4.00
2023-04-18T19:02:22.134Z,4.30
2023-04-18T19:04:49.255Z,9.80
2023-04-18T19:07:16.177Z,4.43
2023-04-18T19:09:43.383Z,4.13
2023-04-18T19:12:10.232Z,4.40
2023-04-18T19:14:37.061Z,4.38
2023-04-18T19:17:05.076Z,5.47
2023-04-18T19:19:31.909Z,6.68
2023-04-18T19:22:01.261Z,4.47
2023-04-18T19:24:28.056Z,4.78
2023-04-18T19:26:54.883Z,4.72
2023-04-18T19:29:22.426Z,6.13
2023-04-18T19:31:49.282Z,6.78
2023-04-18T19:34:19.019Z,6.88
2023-04-18T19:36:46.038Z,5.15
2023-04-18T19:39:13.116Z,5.43
2023-04-18T19:41:41.716Z,7.47
2023-04-18T19:44:08.462Z,5.80
2023-04-18T19:46:35.466Z,6.90
2023-04-18T19:49:02.438Z,5.47
2023-04-18T19:51:29.296Z,5.10
2023-04-18T19:53:56.209Z,4.90
2023-04-18T19:56:23.239Z,5.00
2023-04-18T19:58:50.056Z,5.00
2023-04-18T20:01:19.345Z,5.25
2023-04-18T20:03:47.326Z,5.40
2023-04-18T20:06:14.407Z,4.55
2023-04-18T20:08:45.891Z,5.00
2023-04-18T20:11:16.360Z,5.40
2023-04-18T20:13:43.255Z,5.47
2023-04-18T20:16:11.162Z,5.32
2023-04-18T20:18:39.557Z,5.45
2023-04-18T20:21:07.919Z,5.25
2023-04-18T20:23:35.667Z,5.10
2023-04-18T20:26:03.729Z,5.63
2023-04-18T20:28:31.529Z,5.03
2023-04-18T20:30:58.369Z,4.68
2023-04-18T20:33:25.298Z,5.57
2023-04-18T20:35:53.813Z,5.55
2023-04-18T20:38:25.809Z,5.57
2023-04-18T20:40:54.366Z,5.85
2023-04-18T20:43:21.577Z,6.13
2023-04-18T20:45:51.240Z,5.90
2023-04-18T20:48:18.331Z,6.32
2023-04-18T20:50:51.134Z,5.85
2023-04-18T20:53:21.821Z,6.05
2023-04-18T20:55:49.311Z,5.45
2023-04-18T20:58:16.354Z,5.78
2023-04-18T21:00:44.681Z,7.00
2023-04-18T21:03:15.673Z,5.97
2023-04-18T21:05:44.326Z,5.88
2023-04-18T21:08:11.619Z,6.45
2023-04-18T21:10:38.497Z,6.85
2023-04-18T21:13:05.756Z,5.60
2023-04-18T21:15:32.547Z,5.88
2023-04-18T21:17:59.453Z,6.18
2023-04-18T21:20:26.403Z,6.75
2023-04-18T21:22:53.195Z,6.75
2023-04-18T21:25:21.460Z,6.50
2023-04-18T21:27:50.746Z,6.60
2023-04-18T21:30:17.799Z,6.28
2023-04-18T21:32:46.087Z,6.47
2023-04-18T21:35:13.104Z,6.93
2023-04-18T21:37:39.920Z,6.18
2023-04-18T21:40:07.550Z,8.15
2023-04-18T21:42:35.795Z,7.53
2023-04-18T21:45:03.054Z,7.40
2023-04-18T21:47:30.111Z,6.43
2023-04-18T21:49:56.955Z,7.90
2023-04-18T21:52:23.814Z,6.13
2023-04-18T21:54:50.791Z,5.40
2023-04-18T21:57:17.588Z,5.13
2023-04-18T21:59:44.429Z,5.55
2023-04-18T22:02:11.525Z,4.65
2023-04-18T22:04:42.926Z,5.85
2023-04-18T22:07:10.243Z,5.05
2023-04-18T22:09:37.308Z,5.35
2023-04-18T22:12:04.534Z,5.18
2023-04-18T22:14:34.270Z,4.93
2023-04-18T22:17:03.360Z,5.38
2023-04-18T22:19:31.521Z,4.82
2023-04-18T22:21:58.595Z,4.35
2023-04-18T22:24:26.202Z,4.55
2023-04-18T22:26:53.775Z,4.03
2023-04-18T22:29:20.573Z,4.22
2023-04-18T22:31:47.381Z,4.50
2023-04-18T22:34:14.507Z,4.45
2023-04-18T22:36:42.914Z,4.10
2023-04-18T22:39:09.895Z,4.10
2023-04-18T22:41:36.701Z,3.80
2023-04-18T22:44:06.153Z,4.30
2023-04-18T22:46:33.139Z,4.45
2023-04-18T22:48:59.977Z,4.05
2023-04-18T22:51:28.837Z,4.38
2023-04-18T22:53:56.547Z,4.22
2023-04-18T22:56:23.530Z,3.55
2023-04-18T22:58:50.316Z,4.22
2023-04-18T23:01:17.234Z,3.42
2023-04-18T23:03:44.504Z,3.95
2023-04-18T23:06:11.524Z,4.03
2023-04-18T23:08:38.374Z,4.05
2023-04-18T23:11:05.306Z,4.03
2023-04-18T23:13:32.132Z,3.90
2023-04-18T23:15:59.106Z,4.18
2023-04-18T23:18:29.032Z,4.00
2023-04-18T23:20:55.898Z,3.73
2023-04-18T23:23:22.666Z,3.97
2023-04-18T23:25:49.418Z,3.00
2023-04-18T23:28:17.250Z,3.17
2023-04-18T23:30:44.191Z,3.35
2023-04-18T23:33:11.132Z,3.38
2023-04-18T23:35:37.967Z,3.38
2023-04-18T23:38:04.801Z,3.67
2023-04-18T23:40:31.631Z,3.40
2023-04-18T23:42:59.174Z,3.22
2023-04-18T23:45:29.029Z,3.15
2023-04-18T23:47:56.020Z,2.88
2023-04-18T23:50:22.845Z,3.65
2023-04-18T23:52:49.607Z,3.08
2023-04-18T23:55:16.966Z,2.72
2023-04-18T23:57:44.558Z,3.22
